sensor_id;sensor_type;location;lat;lon;timestamp;temperature;humidity
21950;DHT22;11139;51.284;7.226;2024-02-23T00:02:25;8.60;99.90
21950;DHT22;11139;51.284;7.226;2024-02-23T00:04:50;8.60;99.90
21950;DHT22;11139;51.284;7.226;2024-02-23T00:07:16;8.60;99.90
21950;DHT22;11139;51.284;7.226;2024-02-23T00:09:41;8.50;99.90
21950;DHT22;11139;51.284;7.226;2024-02-23T00:12:07;8.50;99.90
21950;DHT22;11139;51.284;7.226;2024-02-23T00:14:33;8.60;99.90
21950;DHT22;11139;51.284;7.226;2024-02-23T00:17:02;8.60;99.90
21950;DHT22;11139;51.284;7.226;2024-02-23T00:19:29;8.50;99.90
21950;DHT22;11139;51.284;7.226;2024-02-23T00:21:55;8.50;99.90
21950;DHT22;11139;51.284;7.226;2024-02-23T00:24:20;8.60;99.90
21950;DHT22;11139;51.284;7.226;2024-02-23T00:26:48;8.50;99.90
21950;DHT22;11139;51.284;7.226;2024-02-23T00:29:13;8.60;99.90
21950;DHT22;11139;51.284;7.226;2024-02-23T00:31:39;8.50;99.90
21950;DHT22;11139;51.284;7.226;2024-02-23T00:34:08;8.50;99.90
21950;DHT22;11139;51.284;7.226;2024-02-23T00:36:38;8.50;99.90
21950;DHT22;11139;51.284;7.226;2024-02-23T00:39:03;8.50;99.90
21950;DHT22;11139;51.284;7.226;2024-02-23T00:41:29;8.40;99.90
21950;DHT22;11139;51.284;7.226;2024-02-23T00:43:54;8.50;99.90
21950;DHT22;11139;51.284;7.226;2024-02-23T00:46:20;8.50;99.90
21950;DHT22;11139;51.284;7.226;2024-02-23T00:48:45;8.40;99.90
21950;DHT22;11139;51.284;7.226;2024-02-23T00:51:11;8.40;99.90
21950;DHT22;11139;51.284;7.226;2024-02-23T00:53:36;8.40;99.90
21950;DHT22;11139;51.284;7.226;2024-02-23T00:56:02;8.40;99.90
21950;DHT22;11139;51.284;7.226;2024-02-23T00:58:27;8.40;99.90
21950;DHT22;11139;51.284;7.226;2024-02-23T01:00:53;8.40;99.90
21950;DHT22;11139;51.284;7.226;2024-02-23T01:03:18;8.40;99.90
21950;DHT22;11139;51.284;7.226;2024-02-23T01:05:44;8.40;99.90
21950;DHT22;11139;51.284;7.226;2024-02-23T01:08:09;8.40;99.90
21950;DHT22;11139;51.284;7.226;2024-02-23T01:10:35;8.40;99.90
21950;DHT22;11139;51.284;7.226;2024-02-23T01:13:00;8.40;99.90
21950;DHT22;11139;51.284;7.226;2024-02-23T01:15:26;8.40;99.90
21950;DHT22;11139;51.284;7.226;2024-02-23T01:17:51;8.40;99.90
21950;DHT22;11139;51.284;7.226;2024-02-23T01:20:17;8.40;99.90
21950;DHT22;11139;51.284;7.226;2024-02-23T01:22:43;8.40;99.90
21950;DHT22;11139;51.284;7.226;2024-02-23T01:25:08;8.50;99.90
21950;DHT22;11139;51.284;7.226;2024-02-23T01:27:34;8.40;99.90
21950;DHT22;11139;51.284;7.226;2024-02-23T01:29:59;8.40;99.90
21950;DHT22;11139;51.284;7.226;2024-02-23T01:32:25;8.40;99.90
21950;DHT22;11139;51.284;7.226;2024-02-23T01:34:50;8.40;99.90
21950;DHT22;11139;51.284;7.226;2024-02-23T01:37:16;8.40;99.90
21950;DHT22;11139;51.284;7.226;2024-02-23T01:39:42;8.30;99.90
21950;DHT22;11139;51.284;7.226;2024-02-23T01:42:07;8.30;99.90
21950;DHT22;11139;51.284;7.226;2024-02-23T01:44:33;8.30;99.90
21950;DHT22;11139;51.284;7.226;2024-02-23T01:46:58;8.30;99.90
21950;DHT22;11139;51.284;7.226;2024-02-23T01:49:24;8.30;99.90
21950;DHT22;11139;51.284;7.226;2024-02-23T01:51:55;8.30;99.90
21950;DHT22;11139;51.284;7.226;2024-02-23T01:54:21;8.20;99.90
21950;DHT22;11139;51.284;7.226;2024-02-23T01:56:47;8.20;99.90
21950;DHT22;11139;51.284;7.226;2024-02-23T01:59:12;8.20;99.90
21950;DHT22;11139;51.284;7.226;2024-02-23T02:01:38;8.20;99.90
21950;DHT22;11139;51.284;7.226;2024-02-23T02:04:04;8.10;99.90
21950;DHT22;11139;51.284;7.226;2024-02-23T02:06:29;8.20;99.90
21950;DHT22;11139;51.284;7.226;2024-02-23T02:08:55;8.10;99.90
21950;DHT22;11139;51.284;7.226;2024-02-23T02:11:21;8.20;99.90
21950;DHT22;11139;51.284;7.226;2024-02-23T02:13:46;8.20;99.90
21950;DHT22;11139;51.284;7.226;2024-02-23T02:16:12;8.20;99.90
21950;DHT22;11139;51.284;7.226;2024-02-23T02:18:37;8.20;99.90
21950;DHT22;11139;51.284;7.226;2024-02-23T02:21:03;8.20;99.90
21950;DHT22;11139;51.284;7.226;2024-02-23T02:23:29;8.20;99.90
21950;DHT22;11139;51.284;7.226;2024-02-23T02:25:57;8.20;99.90
21950;DHT22;11139;51.284;7.226;2024-02-23T02:28:24;8.10;99.90
21950;DHT22;11139;51.284;7.226;2024-02-23T02:30:50;8.10;99.90
21950;DHT22;11139;51.284;7.226;2024-02-23T02:33:16;8.10;99.90
21950;DHT22;11139;51.284;7.226;2024-02-23T02:35:41;8.20;99.90
21950;DHT22;11139;51.284;7.226;2024-02-23T02:38:08;8.10;99.90
21950;DHT22;11139;51.284;7.226;2024-02-23T02:40:33;8.20;99.90
21950;DHT22;11139;51.284;7.226;2024-02-23T02:42:59;8.10;99.90
21950;DHT22;11139;51.284;7.226;2024-02-23T02:45:24;8.10;99.90
21950;DHT22;11139;51.284;7.226;2024-02-23T02:47:51;8.10;99.90
21950;DHT22;11139;51.284;7.226;2024-02-23T02:50:17;8.10;99.90
21950;DHT22;11139;51.284;7.226;2024-02-23T02:52:42;8.10;99.90
21950;DHT22;11139;51.284;7.226;2024-02-23T02:55:08;8.00;99.90
21950;DHT22;11139;51.284;7.226;2024-02-23T02:57:33;8.00;99.90
21950;DHT22;11139;51.284;7.226;2024-02-23T03:00:02;8.00;99.90
21950;DHT22;11139;51.284;7.226;2024-02-23T03:02:30;8.00;99.90
21950;DHT22;11139;51.284;7.226;2024-02-23T03:04:56;8.00;99.90
21950;DHT22;11139;51.284;7.226;2024-02-23T03:07:21;8.00;99.90
21950;DHT22;11139;51.284;7.226;2024-02-23T03:09:47;8.00;99.90
21950;DHT22;11139;51.284;7.226;2024-02-23T03:12:14;7.90;99.90
21950;DHT22;11139;51.284;7.226;2024-02-23T03:14:39;8.00;99.90
21950;DHT22;11139;51.284;7.226;2024-02-23T03:17:07;8.00;99.90
21950;DHT22;11139;51.284;7.226;2024-02-23T03:19:32;8.00;99.90
21950;DHT22;11139;51.284;7.226;2024-02-23T03:21:58;7.90;99.90
21950;DHT22;11139;51.284;7.226;2024-02-23T03:24:23;7.90;99.90
21950;DHT22;11139;51.284;7.226;2024-02-23T03:26:49;7.90;99.90
21950;DHT22;11139;51.284;7.226;2024-02-23T03:29:14;7.90;99.90
21950;DHT22;11139;51.284;7.226;2024-02-23T03:31:41;7.90;99.90
21950;DHT22;11139;51.284;7.226;2024-02-23T03:34:06;8.00;99.90
21950;DHT22;11139;51.284;7.226;2024-02-23T03:36:33;8.00;99.90
21950;DHT22;11139;51.284;7.226;2024-02-23T03:38:59;8.00;99.90
21950;DHT22;11139;51.284;7.226;2024-02-23T03:41:24;8.00;99.90
21950;DHT22;11139;51.284;7.226;2024-02-23T03:43:50;8.00;99.90
21950;DHT22;11139;51.284;7.226;2024-02-23T03:46:15;8.00;99.90
21950;DHT22;11139;51.284;7.226;2024-02-23T03:48:41;8.00;99.90
21950;DHT22;11139;51.284;7.226;2024-02-23T03:51:08;7.90;99.90
21950;DHT22;11139;51.284;7.226;2024-02-23T03:53:34;8.00;99.90
21950;DHT22;11139;51.284;7.226;2024-02-23T03:55:59;7.90;99.90
21950;DHT22;11139;51.284;7.226;2024-02-23T03:58:25;8.00;99.90
21950;DHT22;11139;51.284;7.226;2024-02-23T04:00:51;7.90;99.90
21950;DHT22;11139;51.284;7.226;2024-02-23T04:03:16;7.90;99.90
21950;DHT22;11139;51.284;7.226;2024-02-23T04:05:42;7.90;99.90
21950;DHT22;11139;51.284;7.226;2024-02-23T04:08:07;7.90;99.90
21950;DHT22;11139;51.284;7.226;2024-02-23T04:10:33;7.90;99.90
21950;DHT22;11139;51.284;7.226;2024-02-23T04:12:59;7.90;99.90
21950;DHT22;11139;51.284;7.226;2024-02-23T04:15:25;7.90;99.90
21950;DHT22;11139;51.284;7.226;2024-02-23T04:17:50;7.80;99.90
21950;DHT22;11139;51.284;7.226;2024-02-23T04:20:16;7.90;99.90
21950;DHT22;11139;51.284;7.226;2024-02-23T04:22:41;7.90;99.90
21950;DHT22;11139;51.284;7.226;2024-02-23T04:25:07;7.80;99.90
21950;DHT22;11139;51.284;7.226;2024-02-23T04:27:33;7.80;99.90
21950;DHT22;11139;51.284;7.226;2024-02-23T04:29:58;7.80;99.90
21950;DHT22;11139;51.284;7.226;2024-02-23T04:32:24;7.80;99.90
21950;DHT22;11139;51.284;7.226;2024-02-23T04:34:49;7.80;99.90
21950;DHT22;11139;51.284;7.226;2024-02-23T04:37:15;7.80;99.90
21950;DHT22;11139;51.284;7.226;2024-02-23T04:39:43;7.80;99.90
21950;DHT22;11139;51.284;7.226;2024-02-23T04:42:08;7.80;99.90
21950;DHT22;11139;51.284;7.226;2024-02-23T04:44:34;7.70;99.90
21950;DHT22;11139;51.284;7.226;2024-02-23T04:47:00;7.70;99.90
21950;DHT22;11139;51.284;7.226;2024-02-23T04:49:25;7.70;99.90
21950;DHT22;11139;51.284;7.226;2024-02-23T04:51:51;7.70;99.90
21950;DHT22;11139;51.284;7.226;2024-02-23T04:54:16;7.70;99.90
21950;DHT22;11139;51.284;7.226;2024-02-23T04:56:42;7.70;99.90
21950;DHT22;11139;51.284;7.226;2024-02-23T04:59:07;7.70;99.90
21950;DHT22;11139;51.284;7.226;2024-02-23T05:01:36;7.70;99.90
21950;DHT22;11139;51.284;7.226;2024-02-23T05:04:02;7.70;99.90
21950;DHT22;11139;51.284;7.226;2024-02-23T05:06:28;7.70;99.90
21950;DHT22;11139;51.284;7.226;2024-02-23T05:08:54;7.70;99.90
21950;DHT22;11139;51.284;7.226;2024-02-23T05:11:19;7.70;99.90
21950;DHT22;11139;51.284;7.226;2024-02-23T05:13:45;7.70;99.90
21950;DHT22;11139;51.284;7.226;2024-02-23T05:16:10;7.70;99.90
21950;DHT22;11139;51.284;7.226;2024-02-23T05:18:38;7.70;99.90
21950;DHT22;11139;51.284;7.226;2024-02-23T05:21:04;7.70;99.90
21950;DHT22;11139;51.284;7.226;2024-02-23T05:23:30;7.60;99.90
21950;DHT22;11139;51.284;7.226;2024-02-23T05:25:55;7.60;99.90
21950;DHT22;11139;51.284;7.226;2024-02-23T05:28:21;7.60;99.90
21950;DHT22;11139;51.284;7.226;2024-02-23T05:30:46;7.60;99.90
21950;DHT22;11139;51.284;7.226;2024-02-23T05:33:12;7.70;99.90
21950;DHT22;11139;51.284;7.226;2024-02-23T05:35:38;7.60;99.90
21950;DHT22;11139;51.284;7.226;2024-02-23T05:38:03;7.60;99.90
21950;DHT22;11139;51.284;7.226;2024-02-23T05:40:31;7.60;99.90
21950;DHT22;11139;51.284;7.226;2024-02-23T05:42:58;7.60;99.90
21950;DHT22;11139;51.284;7.226;2024-02-23T05:45:23;7.60;99.90
21950;DHT22;11139;51.284;7.226;2024-02-23T05:47:49;7.60;99.90
21950;DHT22;11139;51.284;7.226;2024-02-23T05:50:14;7.60;99.90
21950;DHT22;11139;51.284;7.226;2024-02-23T05:52:40;7.60;99.90
21950;DHT22;11139;51.284;7.226;2024-02-23T05:55:06;7.60;99.90
21950;DHT22;11139;51.284;7.226;2024-02-23T05:57:32;7.60;99.90
21950;DHT22;11139;51.284;7.226;2024-02-23T05:59:57;7.60;99.90
21950;DHT22;11139;51.284;7.226;2024-02-23T06:02:23;7.60;99.90
21950;DHT22;11139;51.284;7.226;2024-02-23T06:04:48;7.60;99.90
21950;DHT22;11139;51.284;7.226;2024-02-23T06:07:14;7.60;99.90
21950;DHT22;11139;51.284;7.226;2024-02-23T06:09:43;7.50;99.90
21950;DHT22;11139;51.284;7.226;2024-02-23T06:12:08;7.60;99.90
21950;DHT22;11139;51.284;7.226;2024-02-23T06:14:34;7.50;99.90
21950;DHT22;11139;51.284;7.226;2024-02-23T06:17:00;7.50;99.90
21950;DHT22;11139;51.284;7.226;2024-02-23T06:19:25;7.50;99.90
21950;DHT22;11139;51.284;7.226;2024-02-23T06:21:51;7.50;99.90
21950;DHT22;11139;51.284;7.226;2024-02-23T06:24:16;7.50;99.90
21950;DHT22;11139;51.284;7.226;2024-02-23T06:26:42;7.50;99.90
21950;DHT22;11139;51.284;7.226;2024-02-23T06:29:08;7.50;99.90
21950;DHT22;11139;51.284;7.226;2024-02-23T06:31:36;7.50;99.90
21950;DHT22;11139;51.284;7.226;2024-02-23T06:34:02;7.50;99.90
21950;DHT22;11139;51.284;7.226;2024-02-23T06:36:27;7.50;99.90
21950;DHT22;11139;51.284;7.226;2024-02-23T06:38:53;7.50;99.90
21950;DHT22;11139;51.284;7.226;2024-02-23T06:41:19;7.50;99.90
21950;DHT22;11139;51.284;7.226;2024-02-23T06:43:44;7.40;99.90
21950;DHT22;11139;51.284;7.226;2024-02-23T06:46:10;7.40;99.90
21950;DHT22;11139;51.284;7.226;2024-02-23T06:48:36;7.40;99.90
21950;DHT22;11139;51.284;7.226;2024-02-23T06:51:02;7.40;99.90
21950;DHT22;11139;51.284;7.226;2024-02-23T06:53:29;7.40;99.90
21950;DHT22;11139;51.284;7.226;2024-02-23T06:55:54;7.40;99.90
21950;DHT22;11139;51.284;7.226;2024-02-23T06:58:20;7.40;99.90
21950;DHT22;11139;51.284;7.226;2024-02-23T07:00:46;7.40;99.90
21950;DHT22;11139;51.284;7.226;2024-02-23T07:03:11;7.40;99.90
21950;DHT22;11139;51.284;7.226;2024-02-23T07:05:37;7.40;99.90
21950;DHT22;11139;51.284;7.226;2024-02-23T07:08:02;7.40;99.90
21950;DHT22;11139;51.284;7.226;2024-02-23T07:10:28;7.40;99.90
21950;DHT22;11139;51.284;7.226;2024-02-23T07:12:54;7.40;99.90
21950;DHT22;11139;51.284;7.226;2024-02-23T07:15:21;7.40;99.90
21950;DHT22;11139;51.284;7.226;2024-02-23T07:17:46;7.40;99.90
21950;DHT22;11139;51.284;7.226;2024-02-23T07:20:12;7.40;99.90
21950;DHT22;11139;51.284;7.226;2024-02-23T07:22:38;7.40;99.90
21950;DHT22;11139;51.284;7.226;2024-02-23T07:25:04;7.40;99.90
21950;DHT22;11139;51.284;7.226;2024-02-23T07:27:31;7.30;99.90
21950;DHT22;11139;51.284;7.226;2024-02-23T07:29:57;7.30;99.90
21950;DHT22;11139;51.284;7.226;2024-02-23T07:32:22;7.30;99.90
21950;DHT22;11139;51.284;7.226;2024-02-23T07:34:48;7.30;99.90
21950;DHT22;11139;51.284;7.226;2024-02-23T07:37:15;7.30;99.90
21950;DHT22;11139;51.284;7.226;2024-02-23T07:39:40;7.30;99.90
21950;DHT22;11139;51.284;7.226;2024-02-23T07:42:06;7.30;99.90
21950;DHT22;11139;51.284;7.226;2024-02-23T07:44:33;7.40;99.90
21950;DHT22;11139;51.284;7.226;2024-02-23T07:46:59;7.30;99.90
21950;DHT22;11139;51.284;7.226;2024-02-23T07:49:25;7.30;99.90
21950;DHT22;11139;51.284;7.226;2024-02-23T07:51:53;7.30;99.90
21950;DHT22;11139;51.284;7.226;2024-02-23T07:54:19;7.30;99.90
21950;DHT22;11139;51.284;7.226;2024-02-23T07:56:44;7.30;99.90
21950;DHT22;11139;51.284;7.226;2024-02-23T07:59:10;7.30;99.90
21950;DHT22;11139;51.284;7.226;2024-02-23T08:01:36;7.30;99.90
21950;DHT22;11139;51.284;7.226;2024-02-23T08:04:02;7.30;99.90
21950;DHT22;11139;51.284;7.226;2024-02-23T08:06:28;7.30;99.90
21950;DHT22;11139;51.284;7.226;2024-02-23T08:08:53;7.30;99.90
21950;DHT22;11139;51.284;7.226;2024-02-23T08:11:20;7.30;99.90
21950;DHT22;11139;51.284;7.226;2024-02-23T08:13:45;7.30;99.90
21950;DHT22;11139;51.284;7.226;2024-02-23T08:16:11;7.30;99.90
21950;DHT22;11139;51.284;7.226;2024-02-23T08:18:37;7.30;99.90
21950;DHT22;11139;51.284;7.226;2024-02-23T08:21:02;7.30;99.90
21950;DHT22;11139;51.284;7.226;2024-02-23T08:23:28;7.30;99.90
21950;DHT22;11139;51.284;7.226;2024-02-23T08:25:55;7.20;99.90
21950;DHT22;11139;51.284;7.226;2024-02-23T08:28:36;7.30;99.90
21950;DHT22;11139;51.284;7.226;2024-02-23T08:31:02;7.20;99.90
21950;DHT22;11139;51.284;7.226;2024-02-23T08:33:28;7.20;99.90
21950;DHT22;11139;51.284;7.226;2024-02-23T08:35:53;7.20;99.90
21950;DHT22;11139;51.284;7.226;2024-02-23T08:38:19;7.20;99.90
21950;DHT22;11139;51.284;7.226;2024-02-23T08:40:45;7.20;99.90
21950;DHT22;11139;51.284;7.226;2024-02-23T08:43:13;7.20;99.90
21950;DHT22;11139;51.284;7.226;2024-02-23T08:45:39;7.20;99.90
21950;DHT22;11139;51.284;7.226;2024-02-23T08:48:05;7.20;99.90
21950;DHT22;11139;51.284;7.226;2024-02-23T08:50:30;7.20;99.90
21950;DHT22;11139;51.284;7.226;2024-02-23T08:52:56;7.20;99.90
21950;DHT22;11139;51.284;7.226;2024-02-23T08:55:21;7.20;99.90
21950;DHT22;11139;51.284;7.226;2024-02-23T08:57:47;7.20;99.90
21950;DHT22;11139;51.284;7.226;2024-02-23T09:00:13;7.20;99.90
21950;DHT22;11139;51.284;7.226;2024-02-23T09:02:39;7.10;99.90
21950;DHT22;11139;51.284;7.226;2024-02-23T09:05:07;7.10;99.90
21950;DHT22;11139;51.284;7.226;2024-02-23T09:07:33;7.20;99.90
21950;DHT22;11139;51.284;7.226;2024-02-23T09:09:58;7.20;99.90
21950;DHT22;11139;51.284;7.226;2024-02-23T09:12:24;7.20;99.90
21950;DHT22;11139;51.284;7.226;2024-02-23T09:14:50;7.10;99.90
21950;DHT22;11139;51.284;7.226;2024-02-23T09:17:15;7.10;99.90
21950;DHT22;11139;51.284;7.226;2024-02-23T09:19:41;7.10;99.90
21950;DHT22;11139;51.284;7.226;2024-02-23T09:22:06;7.10;99.90
21950;DHT22;11139;51.284;7.226;2024-02-23T09:24:32;7.20;99.90
21950;DHT22;11139;51.284;7.226;2024-02-23T09:26:58;7.20;99.90
21950;DHT22;11139;51.284;7.226;2024-02-23T09:29:23;7.10;99.90
21950;DHT22;11139;51.284;7.226;2024-02-23T09:31:49;7.10;99.90
21950;DHT22;11139;51.284;7.226;2024-02-23T09:34:14;7.10;99.90
21950;DHT22;11139;51.284;7.226;2024-02-23T09:36:40;7.10;99.90
21950;DHT22;11139;51.284;7.226;2024-02-23T09:39:06;7.10;99.90
21950;DHT22;11139;51.284;7.226;2024-02-23T09:41:32;7.10;99.90
21950;DHT22;11139;51.284;7.226;2024-02-23T09:44:01;7.20;99.90
21950;DHT22;11139;51.284;7.226;2024-02-23T09:46:26;7.10;99.90
21950;DHT22;11139;51.284;7.226;2024-02-23T09:48:52;7.10;99.90
21950;DHT22;11139;51.284;7.226;2024-02-23T09:51:18;7.20;99.90
21950;DHT22;11139;51.284;7.226;2024-02-23T09:53:46;7.10;99.90
21950;DHT22;11139;51.284;7.226;2024-02-23T09:56:12;7.10;99.90
21950;DHT22;11139;51.284;7.226;2024-02-23T09:58:42;7.10;99.90
21950;DHT22;11139;51.284;7.226;2024-02-23T10:01:09;7.10;99.90
21950;DHT22;11139;51.284;7.226;2024-02-23T10:03:37;7.10;99.90
21950;DHT22;11139;51.284;7.226;2024-02-23T10:06:04;7.10;99.90
21950;DHT22;11139;51.284;7.226;2024-02-23T10:08:30;7.10;99.90
21950;DHT22;11139;51.284;7.226;2024-02-23T10:10:55;7.10;99.90
21950;DHT22;11139;51.284;7.226;2024-02-23T10:13:22;7.10;99.90
21950;DHT22;11139;51.284;7.226;2024-02-23T10:15:48;7.10;99.90
21950;DHT22;11139;51.284;7.226;2024-02-23T10:18:13;7.10;99.90
21950;DHT22;11139;51.284;7.226;2024-02-23T10:20:40;7.10;99.90
21950;DHT22;11139;51.284;7.226;2024-02-23T10:23:07;7.10;99.90
21950;DHT22;11139;51.284;7.226;2024-02-23T10:25:36;7.10;99.90
21950;DHT22;11139;51.284;7.226;2024-02-23T10:28:02;7.10;99.90
21950;DHT22;11139;51.284;7.226;2024-02-23T10:30:27;7.10;99.90
21950;DHT22;11139;51.284;7.226;2024-02-23T10:32:55;7.10;99.90
21950;DHT22;11139;51.284;7.226;2024-02-23T10:35:20;7.10;99.90
21950;DHT22;11139;51.284;7.226;2024-02-23T10:37:47;7.10;99.90
21950;DHT22;11139;51.284;7.226;2024-02-23T10:40:16;7.10;99.90
21950;DHT22;11139;51.284;7.226;2024-02-23T10:42:43;7.00;99.90
21950;DHT22;11139;51.284;7.226;2024-02-23T10:45:13;7.10;99.90
21950;DHT22;11139;51.284;7.226;2024-02-23T10:47:39;7.10;99.90
21950;DHT22;11139;51.284;7.226;2024-02-23T10:50:05;7.00;99.90
21950;DHT22;11139;51.284;7.226;2024-02-23T10:52:31;7.00;99.90
21950;DHT22;11139;51.284;7.226;2024-02-23T10:54:57;7.00;99.90
21950;DHT22;11139;51.284;7.226;2024-02-23T10:57:25;7.10;99.90
21950;DHT22;11139;51.284;7.226;2024-02-23T10:59:51;7.10;99.90
21950;DHT22;11139;51.284;7.226;2024-02-23T11:02:19;7.10;99.90
21950;DHT22;11139;51.284;7.226;2024-02-23T11:04:48;7.10;99.90
21950;DHT22;11139;51.284;7.226;2024-02-23T11:07:18;7.10;99.90
21950;DHT22;11139;51.284;7.226;2024-02-23T11:09:48;7.10;99.90
21950;DHT22;11139;51.284;7.226;2024-02-23T11:12:21;7.10;99.90
21950;DHT22;11139;51.284;7.226;2024-02-23T11:14:48;7.10;99.90
21950;DHT22;11139;51.284;7.226;2024-02-23T11:17:19;7.10;99.90
21950;DHT22;11139;51.284;7.226;2024-02-23T11:19:50;7.10;99.90
21950;DHT22;11139;51.284;7.226;2024-02-23T11:22:23;7.10;99.90
21950;DHT22;11139;51.284;7.226;2024-02-23T11:24:49;7.10;99.90
21950;DHT22;11139;51.284;7.226;2024-02-23T11:27:14;7.10;99.90
21950;DHT22;11139;51.284;7.226;2024-02-23T11:29:43;7.10;99.90
21950;DHT22;11139;51.284;7.226;2024-02-23T11:32:15;7.10;99.90
21950;DHT22;11139;51.284;7.226;2024-02-23T11:34:41;7.10;99.90
21950;DHT22;11139;51.284;7.226;2024-02-23T11:37:07;7.10;99.90
21950;DHT22;11139;51.284;7.226;2024-02-23T11:39:35;7.10;99.90
21950;DHT22;11139;51.284;7.226;2024-02-23T11:42:02;7.10;99.90
21950;DHT22;11139;51.284;7.226;2024-02-23T11:44:29;7.20;99.90
21950;DHT22;11139;51.284;7.226;2024-02-23T11:46:54;7.20;99.90
21950;DHT22;11139;51.284;7.226;2024-02-23T11:49:20;7.10;99.90
21950;DHT22;11139;51.284;7.226;2024-02-23T11:51:45;7.10;99.90
21950;DHT22;11139;51.284;7.226;2024-02-23T11:54:11;7.10;99.90
21950;DHT22;11139;51.284;7.226;2024-02-23T11:56:37;7.10;99.90
21950;DHT22;11139;51.284;7.226;2024-02-23T11:59:02;7.20;99.90
21950;DHT22;11139;51.284;7.226;2024-02-23T12:01:29;7.10;99.90
21950;DHT22;11139;51.284;7.226;2024-02-23T12:03:55;7.10;99.90
21950;DHT22;11139;51.284;7.226;2024-02-23T12:06:21;7.20;99.90
21950;DHT22;11139;51.284;7.226;2024-02-23T12:08:46;7.20;99.90
21950;DHT22;11139;51.284;7.226;2024-02-23T12:11:12;7.20;99.90
21950;DHT22;11139;51.284;7.226;2024-02-23T12:13:39;7.10;99.90
21950;DHT22;11139;51.284;7.226;2024-02-23T12:16:06;7.10;99.90
21950;DHT22;11139;51.284;7.226;2024-02-23T12:18:35;7.20;99.90
21950;DHT22;11139;51.284;7.226;2024-02-23T12:23:42;7.10;99.90
21950;DHT22;11139;51.284;7.226;2024-02-23T12:26:08;7.10;99.90
21950;DHT22;11139;51.284;7.226;2024-02-23T12:28:33;7.10;99.90
21950;DHT22;11139;51.284;7.226;2024-02-23T12:30:59;7.10;99.90
21950;DHT22;11139;51.284;7.226;2024-02-23T12:33:32;7.20;99.90
21950;DHT22;11139;51.284;7.226;2024-02-23T12:35:58;7.10;99.90
21950;DHT22;11139;51.284;7.226;2024-02-23T12:38:24;7.10;99.90
21950;DHT22;11139;51.284;7.226;2024-02-23T12:40:50;7.10;99.90
21950;DHT22;11139;51.284;7.226;2024-02-23T12:43:15;7.20;99.90
21950;DHT22;11139;51.284;7.226;2024-02-23T12:45:41;7.10;99.90
21950;DHT22;11139;51.284;7.226;2024-02-23T12:48:06;7.10;99.90
21950;DHT22;11139;51.284;7.226;2024-02-23T12:50:32;7.10;99.90
21950;DHT22;11139;51.284;7.226;2024-02-23T12:52:57;7.10;99.90
21950;DHT22;11139;51.284;7.226;2024-02-23T12:55:23;7.10;99.90
21950;DHT22;11139;51.284;7.226;2024-02-23T12:57:49;7.10;99.90
21950;DHT22;11139;51.284;7.226;2024-02-23T13:00:15;7.10;99.90
21950;DHT22;11139;51.284;7.226;2024-02-23T13:02:40;7.10;99.90
21950;DHT22;11139;51.284;7.226;2024-02-23T13:05:06;7.10;99.90
21950;DHT22;11139;51.284;7.226;2024-02-23T13:07:32;7.10;99.90
21950;DHT22;11139;51.284;7.226;2024-02-23T13:09:57;7.10;99.90
21950;DHT22;11139;51.284;7.226;2024-02-23T13:12:23;7.10;99.90
21950;DHT22;11139;51.284;7.226;2024-02-23T13:14:50;7.10;99.90
21950;DHT22;11139;51.284;7.226;2024-02-23T13:17:16;7.10;99.90
21950;DHT22;11139;51.284;7.226;2024-02-23T13:19:42;7.10;99.90
21950;DHT22;11139;51.284;7.226;2024-02-23T13:22:08;7.10;99.90
21950;DHT22;11139;51.284;7.226;2024-02-23T13:24:33;7.10;99.90
21950;DHT22;11139;51.284;7.226;2024-02-23T13:26:59;7.10;99.90
21950;DHT22;11139;51.284;7.226;2024-02-23T13:29:25;7.10;99.90
21950;DHT22;11139;51.284;7.226;2024-02-23T13:31:50;7.10;99.90
21950;DHT22;11139;51.284;7.226;2024-02-23T13:34:16;7.10;99.90
21950;DHT22;11139;51.284;7.226;2024-02-23T13:36:43;7.20;99.90
21950;DHT22;11139;51.284;7.226;2024-02-23T13:39:09;7.10;99.90
21950;DHT22;11139;51.284;7.226;2024-02-23T13:41:34;7.10;99.90
21950;DHT22;11139;51.284;7.226;2024-02-23T13:44:00;7.20;99.90
21950;DHT22;11139;51.284;7.226;2024-02-23T13:46:29;7.30;99.90
21950;DHT22;11139;51.284;7.226;2024-02-23T13:49:02;7.20;99.90
21950;DHT22;11139;51.284;7.226;2024-02-23T13:51:28;7.30;99.90
21950;DHT22;11139;51.284;7.226;2024-02-23T13:53:53;7.20;99.90
21950;DHT22;11139;51.284;7.226;2024-02-23T13:56:19;7.20;99.90
21950;DHT22;11139;51.284;7.226;2024-02-23T13:58:44;7.20;99.90
21950;DHT22;11139;51.284;7.226;2024-02-23T14:01:11;7.20;99.90
21950;DHT22;11139;51.284;7.226;2024-02-23T14:03:37;7.20;99.90
21950;DHT22;11139;51.284;7.226;2024-02-23T14:06:03;7.30;99.90
21950;DHT22;11139;51.284;7.226;2024-02-23T14:08:28;7.20;99.90
21950;DHT22;11139;51.284;7.226;2024-02-23T14:10:54;7.30;99.90
21950;DHT22;11139;51.284;7.226;2024-02-23T14:13:19;7.20;99.90
21950;DHT22;11139;51.284;7.226;2024-02-23T14:15:45;7.30;99.90
21950;DHT22;11139;51.284;7.226;2024-02-23T14:18:11;7.20;99.90
21950;DHT22;11139;51.284;7.226;2024-02-23T14:20:36;7.30;99.90
21950;DHT22;11139;51.284;7.226;2024-02-23T14:23:02;7.20;99.90
21950;DHT22;11139;51.284;7.226;2024-02-23T14:25:28;7.20;99.90
21950;DHT22;11139;51.284;7.226;2024-02-23T14:27:53;7.20;99.90
21950;DHT22;11139;51.284;7.226;2024-02-23T14:30:20;7.20;99.90
21950;DHT22;11139;51.284;7.226;2024-02-23T14:32:47;7.20;99.90
21950;DHT22;11139;51.284;7.226;2024-02-23T14:35:12;7.30;99.90
21950;DHT22;11139;51.284;7.226;2024-02-23T14:37:38;7.30;99.90
21950;DHT22;11139;51.284;7.226;2024-02-23T14:40:04;7.30;99.90
21950;DHT22;11139;51.284;7.226;2024-02-23T14:42:30;7.30;99.90
21950;DHT22;11139;51.284;7.226;2024-02-23T14:44:55;7.30;99.90
21950;DHT22;11139;51.284;7.226;2024-02-23T14:47:21;7.30;99.90
21950;DHT22;11139;51.284;7.226;2024-02-23T14:49:47;7.30;99.90
21950;DHT22;11139;51.284;7.226;2024-02-23T14:52:12;7.30;99.90
21950;DHT22;11139;51.284;7.226;2024-02-23T14:54:40;7.30;99.90
21950;DHT22;11139;51.284;7.226;2024-02-23T14:57:05;7.30;99.90
21950;DHT22;11139;51.284;7.226;2024-02-23T14:59:31;7.30;99.90
21950;DHT22;11139;51.284;7.226;2024-02-23T15:02:01;7.30;99.90
21950;DHT22;11139;51.284;7.226;2024-02-23T15:04:26;7.30;99.90
21950;DHT22;11139;51.284;7.226;2024-02-23T15:06:52;7.30;99.90
21950;DHT22;11139;51.284;7.226;2024-02-23T15:09:18;7.30;99.90
21950;DHT22;11139;51.284;7.226;2024-02-23T15:11:43;7.30;99.90
21950;DHT22;11139;51.284;7.226;2024-02-23T15:14:09;7.30;99.90
21950;DHT22;11139;51.284;7.226;2024-02-23T15:16:35;7.30;99.90
21950;DHT22;11139;51.284;7.226;2024-02-23T15:19:01;7.30;99.90
21950;DHT22;11139;51.284;7.226;2024-02-23T15:21:27;7.30;99.90
21950;DHT22;11139;51.284;7.226;2024-02-23T15:23:52;7.30;99.90
21950;DHT22;11139;51.284;7.226;2024-02-23T15:26:18;7.30;99.90
21950;DHT22;11139;51.284;7.226;2024-02-23T15:28:44;7.30;99.90
21950;DHT22;11139;51.284;7.226;2024-02-23T15:31:11;7.30;99.90
21950;DHT22;11139;51.284;7.226;2024-02-23T15:33:36;7.30;99.90
21950;DHT22;11139;51.284;7.226;2024-02-23T15:36:05;7.30;99.90
21950;DHT22;11139;51.284;7.226;2024-02-23T15:38:30;7.30;99.90
21950;DHT22;11139;51.284;7.226;2024-02-23T15:40:56;7.30;99.90